Time;durP1;ratioP1;P1;durP2;ratioP2;P2;SDS_P1;SDS_P2;PMS_P1;PMS_P2;Temp;Humidity;BMP_temperature;BMP_pressure;BME280_temperature;BME280_humidity;BME280_pressure;Samples;Min_cycle;Max_cycle;Signal;HPM_P1;HPM_P2
2022/12/01 00:02:01;;;;;;;1999.90;999.90;;;;;;;2.59;100.00;95253.16;4976897;28;20192;-64
2022/12/01 00:04:27;;;;;;;1999.90;999.90;;;;;;;2.56;100.00;95256.56;4976717;28;20203;-64
2022/12/01 00:06:52;;;;;;;1999.90;999.90;;;;;;;2.53;100.00;95248.41;4976557;28;20232;-65
2022/12/01 00:12:01;;;;;;;1999.90;999.90;;;;;;;2.51;100.00;95239.88;4977610;28;20177;-66
2022/12/01 00:14:27;;;;;;;1999.90;999.90;;;;;;;2.51;100.00;95232.59;4976610;28;20181;-66
2022/12/01 00:16:52;;;;;;;1999.90;999.90;;;;;;;2.52;100.00;95217.97;4976731;28;20287;-64
2022/12/01 00:19:18;;;;;;;1999.90;999.90;;;;;;;2.56;100.00;95216.16;4979152;28;20181;-62
2022/12/01 00:21:45;;;;;;;1999.90;999.90;;;;;;;2.53;100.00;95214.16;4979336;28;20180;-63
2022/12/01 00:24:12;;;;;;;1999.90;999.90;;;;;;;2.51;100.00;95205.66;4979803;28;20184;-64
2022/12/01 00:26:37;;;;;;;1999.90;999.90;;;;;;;2.44;100.00;95215.53;4979426;28;20180;-63
2022/12/01 00:29:03;;;;;;;1999.90;999.90;;;;;;;2.32;100.00;95219.13;4979746;28;20179;-63
2022/12/01 00:31:28;;;;;;;1999.90;999.90;;;;;;;2.26;100.00;95204.38;4979380;28;20570;-63
2022/12/01 00:33:54;;;;;;;1999.90;999.90;;;;;;;2.25;100.00;95197.44;4979602;28;20262;-70
2022/12/01 00:36:20;;;;;;;1999.90;999.90;;;;;;;2.27;100.00;95189.81;4979785;28;20177;-70
2022/12/01 00:38:46;;;;;;;1999.90;999.90;;;;;;;2.24;100.00;95182.44;4979317;28;20637;-65
2022/12/01 00:41:12;;;;;;;1999.90;999.90;;;;;;;2.17;100.00;95168.81;4979303;28;20180;-65
2022/12/01 00:43:38;;;;;;;1999.90;999.90;;;;;;;2.19;100.00;95155.00;4979069;28;20178;-65
2022/12/01 00:46:04;;;;;;;1999.90;999.90;;;;;;;2.13;100.00;95148.34;4980062;28;20267;-65
2022/12/01 00:48:29;;;;;;;1999.90;999.90;;;;;;;2.10;100.00;95136.38;4979093;28;20176;-64
2022/12/01 00:50:55;;;;;;;1999.90;999.90;;;;;;;2.02;100.00;95123.91;4979313;28;20539;-64
2022/12/01 00:53:20;;;;;;;1999.90;999.90;;;;;;;2.09;100.00;95113.28;4979028;28;20207;-61
2022/12/01 00:55:46;;;;;;;1999.90;999.90;;;;;;;2.09;100.00;95102.50;4979306;28;20180;-62
2022/12/01 00:58:11;;;;;;;1999.90;999.90;;;;;;;2.06;100.00;95097.84;4978793;28;20204;-63
2022/12/01 01:00:37;;;;;;;1999.90;999.90;;;;;;;2.08;100.00;95094.78;4979218;28;20172;-62
2022/12/01 01:03:06;;;;;;;1999.90;999.90;;;;;;;2.03;100.00;95092.38;4979560;28;20179;-63
2022/12/01 01:05:38;;;;;;;1999.90;999.90;;;;;;;2.03;100.00;95093.16;4978704;28;20203;-63
2022/12/01 01:08:13;;;;;;;1999.90;999.90;;;;;;;2.04;100.00;95094.69;4979129;28;20174;-63
2022/12/01 01:10:40;;;;;;;1999.90;999.90;;;;;;;2.01;100.00;95090.03;4978792;28;20198;-68
2022/12/01 01:13:06;;;;;;;1999.90;999.90;;;;;;;1.90;100.00;95093.66;4978775;28;20203;-70
2022/12/01 01:15:32;;;;;;;1999.90;999.90;;;;;;;1.91;100.00;95081.75;4978794;28;20275;-61
2022/12/01 01:17:57;;;;;;;1999.90;999.90;;;;;;;1.87;100.00;95073.63;4978514;28;20217;-60
2022/12/01 01:20:23;;;;;;;1999.90;999.90;;;;;;;1.97;100.00;95067.66;4975345;28;20220;-61
2022/12/01 01:22:48;;;;;;;1999.90;999.90;;;;;;;1.98;100.00;95058.47;4975317;28;20177;-61
2022/12/01 01:25:14;;;;;;;1999.90;999.90;;;;;;;1.90;100.00;95056.75;4975449;28;20173;-61
2022/12/01 01:27:39;;;;;;;1999.90;999.90;;;;;;;1.79;100.00;95060.38;4975035;28;20184;-60
2022/12/01 01:30:05;;;;;;;1999.90;999.90;;;;;;;1.88;100.00;95048.25;4974995;28;20175;-68
2022/12/01 01:32:30;;;;;;;1999.90;999.90;;;;;;;1.82;100.00;95055.06;4974981;28;20180;-68
2022/12/01 01:34:56;;;;;;;1999.90;999.90;;;;;;;1.96;100.00;95041.88;4975206;28;20225;-68
2022/12/01 01:37:21;;;;;;;1999.90;999.90;;;;;;;1.94;100.00;95041.47;4974974;28;20246;-69
2022/12/01 01:39:46;;;;;;;1999.90;999.90;;;;;;;1.90;100.00;95040.59;4975058;28;20261;-69
2022/12/01 01:42:13;;;;;;;1999.90;999.90;;;;;;;1.95;100.00;95032.25;4974749;28;20180;-68
2022/12/01 01:44:48;;;;;;;1999.90;999.90;;;;;;;1.93;100.00;95039.88;4974972;28;20180;-69
2022/12/01 01:47:15;;;;;;;1999.90;999.90;;;;;;;1.88;100.00;95042.09;4975178;28;20325;-61
2022/12/01 01:49:41;;;;;;;1999.90;999.90;;;;;;;1.87;100.00;95046.72;4974735;28;20198;-60
2022/12/01 01:52:08;;;;;;;1999.90;999.90;;;;;;;1.77;100.00;95047.28;4975387;28;20648;-64
2022/12/01 01:54:41;;;;;;;1999.90;999.90;;;;;;;1.88;100.00;95037.50;4975700;28;20181;-63
2022/12/01 01:57:10;;;;;;;1999.90;999.90;;;;;;;1.80;100.00;95030.44;4975401;28;20193;-64
2022/12/01 01:59:45;;;;;;;1999.90;999.90;;;;;;;1.85;100.00;95035.50;4975115;28;20181;-63
2022/12/01 02:02:12;;;;;;;1999.90;999.90;;;;;;;1.89;100.00;95032.91;4975406;28;20183;-63
2022/12/01 02:04:41;;;;;;;1999.90;999.90;;;;;;;1.85;100.00;95021.25;4976009;28;20196;-62
2022/12/01 02:07:07;;;;;;;1999.90;999.90;;;;;;;1.95;100.00;95020.69;4974807;28;20267;-65
2022/12/01 02:09:34;;;;;;;1999.90;999.90;;;;;;;1.99;100.00;95013.44;4974889;28;20649;-63
2022/12/01 02:12:06;;;;;;;1999.90;999.90;;;;;;;1.95;100.00;95016.09;4974740;28;20181;-63
2022/12/01 02:14:56;;;;;;;1999.90;999.90;;;;;;;1.98;100.00;95018.06;4974376;28;20212;-63
2022/12/01 02:17:43;;;;;;;1999.90;999.90;;;;;;;1.87;100.00;95024.38;4975027;28;20660;-63
2022/12/01 02:20:42;;;;;;;1999.90;999.90;;;;;;;1.97;100.00;95013.81;4974249;28;20677;-64
2022/12/01 02:23:45;;;;;;;1999.90;999.90;;;;;;;1.94;100.00;95011.84;4974507;28;20266;-64
2022/12/01 02:26:35;;;;;;;1999.90;999.90;;;;;;;2.02;100.00;94994.69;4974754;28;20274;-65
2022/12/01 02:29:38;;;;;;;1999.90;999.90;;;;;;;2.08;100.00;94997.84;4975525;28;20179;-68
2022/12/01 02:32:16;;;;;;;1999.90;999.90;;;;;;;1.99;100.00;95003.47;4974546;28;20181;-67
2022/12/01 02:35:00;;;;;;;1999.90;999.90;;;;;;;1.89;100.00;94985.22;4975383;28;20590;-69
2022/12/01 02:37:46;;;;;;;1999.90;999.90;;;;;;;1.91;100.00;94988.34;4974796;28;20322;-69
2022/12/01 02:40:21;;;;;;;1999.90;999.90;;;;;;;1.96;100.00;94968.41;4974878;28;20204;-70
2022/12/01 02:42:49;;;;;;;1999.90;999.90;;;;;;;2.03;100.00;94946.97;4974956;28;20625;-61
2022/12/01 02:45:32;;;;;;;1999.90;999.90;;;;;;;2.03;100.00;94931.63;4974335;28;20211;-69
2022/12/01 02:48:01;;;;;;;1999.90;999.90;;;;;;;1.92;100.00;94925.28;4975075;28;20215;-64
2022/12/01 02:50:30;;;;;;;1999.90;999.90;;;;;;;1.96;100.00;94909.97;4974128;28;20183;-65
2022/12/01 02:52:56;;;;;;;1999.90;999.90;;;;;;;1.97;100.00;94900.75;4974925;28;20565;-65
2022/12/01 02:55:21;;;;;;;1999.90;999.90;;;;;;;1.99;100.00;94871.56;4974595;28;20176;-64
2022/12/01 02:57:47;;;;;;;1999.90;999.90;;;;;;;1.99;100.00;94866.19;4974315;28;20210;-65
2022/12/01 03:00:13;;;;;;;1999.90;999.90;;;;;;;1.89;100.00;94853.31;4974196;28;20271;-66
2022/12/01 03:02:52;;;;;;;1999.90;999.90;;;;;;;1.90;100.00;94835.28;4974564;28;20311;-65
2022/12/01 03:05:27;;;;;;;1999.90;999.90;;;;;;;2.05;100.00;94815.50;4974062;28;20275;-64
2022/12/01 03:07:57;;;;;;;1999.90;999.90;;;;;;;1.99;100.00;94817.72;4974926;28;20182;-63
2022/12/01 03:10:36;;;;;;;1999.90;999.90;;;;;;;1.94;100.00;94801.91;4975060;28;20181;-64
2022/12/01 03:13:29;;;;;;;1999.90;999.90;;;;;;;2.05;100.00;94793.97;4975826;28;20181;-63
2022/12/01 03:16:03;;;;;;;1999.90;999.90;;;;;;;2.03;100.00;94782.78;4978121;28;20295;-64
2022/12/01 03:18:37;;;;;;;1999.90;999.90;;;;;;;1.99;100.00;94777.34;4977545;28;20203;-63
2022/12/01 03:21:21;;;;;;;1999.90;999.90;;;;;;;1.99;100.00;94766.59;4977353;28;20235;-62
2022/12/01 03:23:52;;;;;;;1999.90;999.90;;;;;;;2.00;100.00;94762.75;4978171;28;20178;-65
2022/12/01 03:26:21;;;;;;;1999.90;999.90;;;;;;;2.07;100.00;94737.81;4977489;28;20635;-64
2022/12/01 03:28:51;;;;;;;1999.90;999.90;;;;;;;2.14;100.00;94730.63;4977384;28;20179;-64
2022/12/01 03:31:26;;;;;;;1999.90;999.90;;;;;;;2.01;100.00;94733.91;4977165;28;20172;-65
2022/12/01 03:33:59;;;;;;;1999.90;999.90;;;;;;;2.04;100.00;94723.19;4977994;28;20243;-65
2022/12/01 03:36:32;;;;;;;1999.90;999.90;;;;;;;2.13;100.00;94725.59;4977177;28;20649;-65
2022/12/01 03:39:03;;;;;;;1999.90;999.90;;;;;;;2.05;100.00;94718.59;4977614;28;20199;-74
2022/12/01 03:41:36;;;;;;;1999.90;999.90;;;;;;;2.09;100.00;94714.81;4976796;28;20618;-72
2022/12/01 03:44:13;;;;;;;1999.90;999.90;;;;;;;2.00;100.00;94716.22;4977570;28;20199;-71
2022/12/01 03:47:05;;;;;;;1999.90;999.90;;;;;;;2.07;100.00;94711.69;4976731;28;20255;-72
2022/12/01 03:49:31;;;;;;;1999.90;999.90;;;;;;;2.10;100.00;94708.28;4974098;28;20239;-71
2022/12/01 03:52:17;;;;;;;1999.90;999.90;;;;;;;2.02;100.00;94709.31;4976993;28;20173;-71
2022/12/01 03:54:54;;;;;;;1999.90;999.90;;;;;;;2.06;100.00;94703.97;4977388;28;20271;-72
2022/12/01 03:57:45;;;;;;;1999.90;999.90;;;;;;;2.10;100.00;94700.19;4977381;28;20290;-61
2022/12/01 04:00:13;;;;;;;1999.90;999.90;;;;;;;2.12;100.00;94697.91;4976672;28;20181;-63
2022/12/01 04:02:40;;;;;;;1999.90;999.90;;;;;;;2.18;100.00;94701.81;4977321;28;20173;-63
2022/12/01 04:05:08;;;;;;;1999.90;999.90;;;;;;;2.16;100.00;94693.34;4977162;28;20658;-63
2022/12/01 04:07:34;;;;;;;1999.90;999.90;;;;;;;2.20;100.00;94694.16;4977308;28;20215;-64
2022/12/01 04:09:59;;;;;;;1999.90;999.90;;;;;;;2.18;100.00;94704.50;4977123;28;20235;-63
2022/12/01 04:12:31;;;;;;;1999.90;999.90;;;;;;;2.18;100.00;94707.22;4976510;28;20186;-63
2022/12/01 04:15:10;;;;;;;1999.90;999.90;;;;;;;2.20;100.00;94710.31;4977387;28;20169;-69
2022/12/01 04:17:35;;;;;;;1999.90;999.90;;;;;;;2.13;100.00;94721.00;4977201;28;20216;-66
2022/12/01 04:20:01;;;;;;;1999.90;999.90;;;;;;;2.13;100.00;94712.94;4976160;28;20224;-66
2022/12/01 04:22:27;;;;;;;1999.90;999.90;;;;;;;2.22;100.00;94716.09;4976274;28;20236;-65
2022/12/01 04:24:52;;;;;;;1999.90;999.90;;;;;;;2.17;100.00;94711.06;4975836;28;20176;-66
2022/12/01 04:27:19;;;;;;;1999.90;999.90;;;;;;;2.27;100.00;94709.63;4976485;28;20180;-66
2022/12/01 04:29:44;;;;;;;1999.90;999.90;;;;;;;2.29;100.00;94708.09;4976249;28;20197;-66
2022/12/01 04:32:10;;;;;;;1999.90;999.90;;;;;;;2.29;100.00;94724.28;4976563;28;20185;-66
2022/12/01 04:34:36;;;;;;;1999.90;999.90;;;;;;;2.36;100.00;94718.19;4976722;28;20184;-70
2022/12/01 04:37:03;;;;;;;1999.90;999.90;;;;;;;2.36;100.00;94713.59;4975970;28;20299;-63
2022/12/01 04:39:28;;;;;;;1999.90;999.90;;;;;;;2.43;100.00;94719.06;4976156;28;20190;-63
2022/12/01 04:41:53;;;;;;;1999.90;999.90;;;;;;;2.40;100.00;94722.47;4975924;28;20251;-62
2022/12/01 04:44:19;;;;;;;1999.90;999.90;;;;;;;2.33;100.00;94735.09;4976431;28;20318;-62
2022/12/01 04:46:44;;;;;;;1999.90;999.90;;;;;;;2.34;100.00;94732.00;4975555;28;20180;-63
2022/12/01 04:49:10;;;;;;;1999.90;999.90;;;;;;;2.40;100.00;94735.16;4976016;28;20176;-64
2022/12/01 04:51:35;;;;;;;1999.90;999.90;;;;;;;2.42;100.00;94730.97;4975677;28;20590;-65
2022/12/01 04:54:01;;;;;;;1999.90;999.90;;;;;;;2.32;100.00;94734.31;4975814;28;20177;-69
2022/12/01 04:56:27;;;;;;;1999.90;999.90;;;;;;;2.29;100.00;94734.25;4976268;28;20198;-66
2022/12/01 04:58:52;;;;;;;1999.90;999.90;;;;;;;2.34;100.00;94740.09;4975649;28;20209;-66
2022/12/01 05:01:18;;;;;;;1999.90;999.90;;;;;;;2.44;100.00;94744.84;4976173;28;20273;-68
2022/12/01 05:03:47;;;;;;;1999.90;999.90;;;;;;;2.47;100.00;94746.81;4975553;28;20252;-68
2022/12/01 05:06:23;;;;;;;1999.90;999.90;;;;;;;2.46;100.00;94745.25;4976053;28;20194;-68
2022/12/01 05:08:49;;;;;;;1999.90;999.90;;;;;;;2.51;100.00;94754.91;4976177;28;20702;-67
2022/12/01 05:11:15;;;;;;;1999.90;999.90;;;;;;;2.59;100.00;94760.03;4975380;28;20644;-70
2022/12/01 05:13:43;;;;;;;1999.90;999.90;;;;;;;2.63;100.00;94755.44;4975550;28;20263;-66
2022/12/01 05:16:14;;;;;;;1999.90;999.90;;;;;;;2.64;100.00;94757.00;4975866;28;20679;-65
2022/12/01 05:18:40;;;;;;;1999.90;999.90;;;;;;;2.67;100.00;94780.53;4975579;28;20300;-66
2022/12/01 05:21:07;;;;;;;1999.90;999.90;;;;;;;2.70;100.00;94776.31;4974702;28;20255;-66
2022/12/01 05:23:35;;;;;;;1999.90;999.90;;;;;;;2.71;100.00;94786.75;4975504;28;20183;-66
2022/12/01 05:26:02;;;;;;;1999.90;999.90;;;;;;;2.72;100.00;94790.19;4975196;28;20176;-64
2022/12/01 05:28:28;;;;;;;1999.90;999.90;;;;;;;2.70;100.00;94803.28;4975354;28;20638;-64
2022/12/01 05:30:54;;;;;;;1999.90;999.90;;;;;;;2.74;100.00;94804.84;4975658;28;20176;-61
2022/12/01 05:33:21;;;;;;;1999.90;999.90;;;;;;;2.73;100.00;94822.16;4975273;28;20231;-68
2022/12/01 05:35:47;;;;;;;1999.90;999.90;;;;;;;2.76;100.00;94834.91;4974149;28;20232;-68
2022/12/01 05:38:12;;;;;;;1999.90;999.90;;;;;;;2.70;100.00;94857.94;4974596;28;20205;-69
2022/12/01 05:40:38;;;;;;;1999.90;999.90;;;;;;;2.72;100.00;94877.22;4974956;28;20550;-68
2022/12/01 05:43:04;;;;;;;1999.90;999.90;;;;;;;2.74;100.00;94896.50;4975413;28;20314;-68
2022/12/01 05:45:30;;;;;;;1999.90;999.90;;;;;;;2.73;100.00;94916.50;4974821;28;20212;-68
2022/12/01 05:47:57;;;;;;;1999.90;999.90;;;;;;;2.61;100.00;94946.38;4974990;28;20208;-62
2022/12/01 05:50:23;;;;;;;1999.90;999.90;;;;;;;2.75;100.00;94956.56;4974652;28;20251;-66
2022/12/01 05:52:49;;;;;;;1999.90;999.90;;;;;;;2.73;100.00;94970.41;4975366;28;20554;-65
2022/12/01 05:55:15;;;;;;;1999.90;999.90;;;;;;;2.72;100.00;94968.06;4974867;28;20185;-65
2022/12/01 05:57:40;;;;;;;1999.90;999.90;;;;;;;2.69;100.00;94993.06;4974619;28;20228;-65
2022/12/01 06:00:06;;;;;;;1999.90;999.90;;;;;;;2.67;100.00;95020.41;4974315;28;20182;-65
2022/12/01 06:02:32;;;;;;;1999.90;999.90;;;;;;;2.64;100.00;95031.88;4974561;28;20228;-64
2022/12/01 06:04:57;;;;;;;1999.90;999.90;;;;;;;2.61;100.00;95032.59;4974988;28;20219;-64
2022/12/01 06:07:24;;;;;;;1999.90;999.90;;;;;;;2.70;100.00;95035.81;4974825;28;20192;-62
2022/12/01 06:09:50;;;;;;;1999.90;999.90;;;;;;;2.75;100.00;95038.22;4975071;28;20263;-62
2022/12/01 06:12:16;;;;;;;1999.90;999.90;;;;;;;2.80;100.00;95056.78;4974318;28;20176;-63
2022/12/01 06:14:41;;;;;;;1999.90;999.90;;;;;;;2.72;100.00;95060.50;4974572;28;20243;-64
2022/12/01 06:17:06;;;;;;;1999.90;999.90;;;;;;;2.64;100.00;95064.22;4974598;28;20204;-63
2022/12/01 06:19:32;;;;;;;1999.90;999.90;;;;;;;2.68;100.00;95070.44;4974658;28;20294;-63
2022/12/01 06:21:57;;;;;;;1999.90;999.90;;;;;;;2.75;100.00;95084.03;4975358;28;20192;-64
2022/12/01 06:24:22;;;;;;;1999.90;999.90;;;;;;;2.72;100.00;95076.69;4974523;28;20183;-62
2022/12/01 06:26:48;;;;;;;1999.90;999.90;;;;;;;2.72;100.00;95092.06;4974543;28;20188;-70
2022/12/01 06:29:13;;;;;;;1999.90;999.90;;;;;;;2.76;100.00;95101.75;4974212;28;20181;-70
2022/12/01 06:31:39;;;;;;;1999.90;999.90;;;;;;;2.85;100.00;95099.59;4974189;28;20258;-71
2022/12/01 06:34:04;;;;;;;1999.90;999.90;;;;;;;2.88;100.00;95112.34;4975039;28;20181;-69
2022/12/01 06:36:30;;;;;;;1999.90;999.90;;;;;;;2.95;100.00;95112.47;4974057;28;20258;-69
2022/12/01 06:38:55;;;;;;;1999.90;999.90;;;;;;;2.99;100.00;95123.31;4974047;28;20216;-68
2022/12/01 06:41:20;;;;;;;1999.90;999.90;;;;;;;2.88;100.00;95152.03;4974416;28;20271;-69
2022/12/01 06:43:46;;;;;;;1999.90;999.90;;;;;;;2.86;100.00;95162.38;4974852;28;20183;-63
2022/12/01 06:46:11;;;;;;;1999.90;999.90;;;;;;;2.85;100.00;95169.69;4974987;28;20606;-61
2022/12/01 06:48:36;;;;;;;1999.90;999.90;;;;;;;2.86;100.00;95189.34;4978231;28;20251;-61
2022/12/01 06:51:02;;;;;;;1999.90;999.90;;;;;;;2.87;100.00;95193.59;4977651;28;20189;-61
2022/12/01 06:53:28;;;;;;;1999.90;999.90;;;;;;;2.95;100.00;95198.75;4977912;28;20181;-61
2022/12/01 06:56:01;;;;;;;1999.90;999.90;;;;;;;2.84;100.00;95197.78;4977894;28;20180;-61
2022/12/01 06:58:27;;;;;;;1999.90;999.90;;;;;;;2.76;100.00;95206.88;4978290;28;20270;-62
2022/12/01 07:00:52;;;;;;;1999.90;999.90;;;;;;;2.79;100.00;95214.28;4977620;28;20635;-68
2022/12/01 07:03:17;;;;;;;1999.90;999.90;;;;;;;2.88;100.00;95211.34;4978463;28;20200;-65
2022/12/01 07:05:43;;;;;;;1999.90;999.90;;;;;;;2.89;100.00;95227.16;4977214;28;20203;-67
2022/12/01 07:08:08;;;;;;;1999.90;999.90;;;;;;;2.77;100.00;95235.41;4977505;28;20176;-65
2022/12/01 07:10:33;;;;;;;1999.90;999.90;;;;;;;2.87;100.00;95229.44;4977642;28;20176;-65
2022/12/01 07:12:59;;;;;;;1999.90;999.90;;;;;;;2.90;100.00;95228.72;4977678;28;20181;-64
2022/12/01 07:15:24;;;;;;;1999.90;999.90;;;;;;;2.94;100.00;95234.16;4977424;28;20215;-70
2022/12/01 07:17:49;;;;;;;1999.90;999.90;;;;;;;2.93;100.00;95249.56;4977738;28;20215;-64
2022/12/01 07:20:15;;;;;;;1999.90;999.90;;;;;;;2.92;100.00;95248.00;4977738;28;20231;-67
2022/12/01 07:22:41;;;;;;;1999.90;999.90;;;;;;;2.88;100.00;95259.88;4977315;28;20180;-64
2022/12/01 07:25:08;;;;;;;1999.90;999.90;;;;;;;2.89;100.00;95264.91;4977548;28;20689;-66
2022/12/01 07:27:34;;;;;;;1999.90;999.90;;;;;;;2.83;100.00;95274.41;4977750;28;20467;-66
2022/12/01 07:29:59;;;;;;;1999.90;999.90;;;;;;;2.89;100.00;95269.50;4977274;28;20169;-66
2022/12/01 07:32:25;;;;;;;1999.90;999.90;;;;;;;3.04;100.00;95277.50;4977441;28;20187;-67
2022/12/01 07:34:50;;;;;;;1999.90;999.90;;;;;;;3.03;100.00;95286.72;4977035;28;20184;-66
2022/12/01 07:37:15;;;;;;;1999.90;999.90;;;;;;;3.05;100.00;95292.56;4976968;28;20204;-65
2022/12/01 07:39:41;;;;;;;1999.90;999.90;;;;;;;2.94;100.00;95296.19;4976905;28;20275;-69
2022/12/01 07:42:06;;;;;;;1999.90;999.90;;;;;;;2.99;100.00;95299.38;4977631;28;20196;-65
2022/12/01 07:44:32;;;;;;;1999.90;999.90;;;;;;;3.08;100.00;95299.94;4977060;28;20176;-65
2022/12/01 07:46:57;;;;;;;1999.90;999.90;;;;;;;3.07;100.00;95305.69;4977943;28;20180;-65
2022/12/01 07:49:22;;;;;;;1999.90;999.90;;;;;;;3.11;100.00;95310.00;4976999;28;20631;-65
2022/12/01 07:51:48;;;;;;;1999.90;999.90;;;;;;;3.16;100.00;95312.41;4977402;28;20251;-65
2022/12/01 07:54:13;;;;;;;1999.90;999.90;;;;;;;3.17;100.00;95313.97;4977268;28;20188;-65
2022/12/01 07:56:41;;;;;;;1999.90;999.90;;;;;;;3.15;100.00;95321.66;4977367;28;20177;-63
2022/12/01 07:59:07;;;;;;;1999.90;999.90;;;;;;;3.13;100.00;95328.50;4976095;28;20674;-63
2022/12/01 08:01:32;;;;;;;1999.90;999.90;;;;;;;3.08;100.00;95332.28;4977157;28;20177;-63
2022/12/01 08:03:58;;;;;;;1999.90;999.90;;;;;;;2.99;100.00;95342.50;4977179;28;20288;-63
2022/12/01 08:06:25;;;;;;;1999.90;999.90;;;;;;;3.13;100.00;95345.47;4977180;28;20181;-62
2022/12/01 08:08:51;;;;;;;1999.90;999.90;;;;;;;3.06;100.00;95353.44;4977023;28;20271;-62
2022/12/01 08:11:24;;;;;;;1999.90;999.90;;;;;;;2.99;100.00;95350.59;4976565;28;20304;-62
2022/12/01 08:13:50;;;;;;;1999.90;999.90;;;;;;;3.03;100.00;95351.44;4976608;28;20177;-68
2022/12/01 08:16:18;;;;;;;1999.90;999.90;;;;;;;3.11;100.00;95357.78;4976455;28;20173;-68
2022/12/01 08:18:44;;;;;;;1999.90;999.90;;;;;;;3.17;100.00;95359.81;4976136;28;20219;-65
2022/12/01 08:21:14;;;;;;;1999.90;999.90;;;;;;;3.18;100.00;95366.00;4976471;28;20228;-66
2022/12/01 08:23:40;;;;;;;1999.90;999.90;;;;;;;3.25;100.00;95377.69;4976249;28;20181;-65
2022/12/01 08:26:09;;;;;;;1999.90;999.90;;;;;;;3.20;100.00;95386.09;4976275;28;20180;-66
2022/12/01 08:28:35;;;;;;;1999.90;999.90;;;;;;;3.30;100.00;95377.41;4976198;28;20172;-66
2022/12/01 08:31:13;;;;;;;1999.90;999.90;;;;;;;3.27;100.00;95383.53;4976023;28;20191;-66
2022/12/01 08:33:38;;;;;;;1999.90;999.90;;;;;;;3.34;100.00;95393.66;4976579;28;20561;-70
2022/12/01 08:36:04;;;;;;;1999.90;999.90;;;;;;;3.45;100.00;95417.03;4976134;28;20235;-66
2022/12/01 08:38:30;;;;;;;1999.90;999.90;;;;;;;3.56;100.00;95408.34;4975923;28;20209;-67
2022/12/01 08:41:04;;;;;;;1999.90;999.90;;;;;;;3.58;100.00;95414.16;4975956;28;20645;-66
2022/12/01 08:43:30;;;;;;;1999.90;999.90;;;;;;;3.51;100.00;95431.78;4976266;28;20232;-66
2022/12/01 08:46:01;;;;;;;1999.90;999.90;;;;;;;3.47;100.00;95436.31;4975490;28;20212;-66
2022/12/01 08:48:28;;;;;;;1999.90;999.90;;;;;;;3.38;100.00;95443.88;4975920;28;20177;-66
2022/12/01 08:51:05;;;;;;;1999.90;999.90;;;;;;;3.32;100.00;95433.72;4975846;28;20638;-62
2022/12/01 08:53:32;;;;;;;1999.90;999.90;;;;;;;3.36;100.00;95440.72;4975937;28;20303;-70
2022/12/01 08:56:03;;;;;;;1999.90;999.90;;;;;;;3.42;100.00;95439.31;4975762;28;20177;-64
2022/12/01 08:58:29;;;;;;;1999.90;999.90;;;;;;;3.33;100.00;95438.78;4975493;28;20240;-65
2022/12/01 09:01:06;;;;;;;1999.90;999.90;;;;;;;3.36;100.00;95440.72;4975670;28;20173;-63
2022/12/01 09:03:32;;;;;;;1999.90;999.90;;;;;;;3.30;100.00;95446.78;4975920;28;20173;-63
2022/12/01 09:06:24;;;;;;;1999.90;999.90;;;;;;;3.33;100.00;95436.06;4975754;28;20173;-65
2022/12/01 09:08:49;;;;;;;1999.90;999.90;;;;;;;3.53;100.00;95436.06;4971487;28;20195;-63
2022/12/01 09:11:17;;;;;;;1999.90;999.90;;;;;;;3.63;100.00;95441.63;4975550;28;20173;-66
2022/12/01 09:13:44;;;;;;;1999.90;999.90;;;;;;;3.60;100.00;95457.78;4975408;28;20181;-66
2022/12/01 09:16:12;;;;;;;1999.90;999.90;;;;;;;3.47;100.00;95457.16;4975388;28;20177;-65
2022/12/01 09:18:38;;;;;;;1999.90;999.90;;;;;;;3.42;100.00;95455.50;4975274;28;20287;-65
2022/12/01 09:21:19;;;;;;;1999.90;999.90;;;;;;;3.45;100.00;95460.19;4975115;28;20259;-67
2022/12/01 09:23:45;;;;;;;1999.90;999.90;;;;;;;3.37;100.00;95463.91;4975140;28;20173;-66
2022/12/01 09:26:11;;;;;;;1999.90;999.90;;;;;;;3.38;100.00;95464.66;4976011;28;20172;-65
2022/12/01 09:28:36;;;;;;;1999.90;999.90;;;;;;;3.44;100.00;95468.66;4975163;28;20231;-65
2022/12/01 09:31:11;;;;;;;1999.90;999.90;;;;;;;3.42;100.00;95470.91;4974963;28;20185;-65
2022/12/01 09:33:36;;;;;;;1999.90;999.90;;;;;;;3.61;100.00;95478.22;4975096;28;20172;-66
2022/12/01 09:36:03;;;;;;;1999.90;999.90;;;;;;;3.56;100.00;95478.53;4974830;28;20176;-66
2022/12/01 09:38:32;;;;;;;1999.90;999.90;;;;;;;3.70;100.00;95482.28;4974921;28;20220;-65
2022/12/01 09:41:04;;;;;;;1999.90;999.90;;;;;;;3.71;100.00;95493.88;4975529;28;20223;-65
2022/12/01 09:43:39;;;;;;;1999.90;999.90;;;;;;;3.63;100.00;95492.94;4975027;28;20182;-65
2022/12/01 09:46:10;;;;;;;1999.90;999.90;;;;;;;3.69;100.00;95502.31;4975756;28;20188;-63
2022/12/01 09:48:42;;;;;;;1999.90;999.90;;;;;;;3.82;100.00;95501.00;4974861;28;20165;-63
2022/12/01 09:51:20;;;;;;;1999.90;999.90;;;;;;;3.69;100.00;95509.63;4974926;28;20177;-66
2022/12/01 09:53:51;;;;;;;1999.90;999.90;;;;;;;3.81;100.00;95504.06;4975426;28;20168;-66
2022/12/01 09:56:21;;;;;;;1999.90;999.90;;;;;;;3.82;100.00;95500.25;4975104;28;20173;-68
2022/12/01 09:58:51;;;;;;;1999.90;999.90;;;;;;;3.83;100.00;95501.81;4974936;28;20208;-66
2022/12/01 10:01:19;;;;;;;1999.90;999.90;;;;;;;3.76;100.00;95507.06;4974946;28;20231;-68
2022/12/01 10:03:56;;;;;;;1999.90;999.90;;;;;;;3.93;100.00;95512.03;4974867;28;20299;-66
2022/12/01 10:06:37;;;;;;;1999.90;999.90;;;;;;;3.84;100.00;95508.75;4975416;28;20230;-66
2022/12/01 10:09:19;;;;;;;1999.90;999.90;;;;;;;3.99;100.00;95500.56;4975296;28;20650;-63
2022/12/01 10:11:46;;;;;;;1999.90;999.90;;;;;;;3.98;100.00;95511.72;4975313;28;20219;-62
2022/12/01 10:14:17;;;;;;;1999.90;999.90;;;;;;;3.90;100.00;95501.94;4974662;28;20184;-62
2022/12/01 10:16:56;;;;;;;1999.90;999.90;;;;;;;3.89;100.00;95500.38;4975300;28;20173;-63
2022/12/01 10:19:34;;;;;;;1999.90;999.90;;;;;;;4.01;100.00;95498.31;4977722;28;20211;-63
2022/12/01 10:22:16;;;;;;;1999.90;999.90;;;;;;;4.09;100.00;95507.31;4979930;28;20215;-62
2022/12/01 10:25:27;;;;;;;1999.90;999.90;;;;;;;4.02;100.00;95509.88;4982469;28;20179;-65
2022/12/01 10:28:11;;;;;;;1999.90;999.90;;;;;;;3.99;100.00;95505.97;4980819;28;20184;-66
2022/12/01 10:30:48;;;;;;;1999.90;999.90;;;;;;;4.13;100.00;95503.53;4981257;28;20180;-66
2022/12/01 10:33:24;;;;;;;1999.90;999.90;;;;;;;3.92;100.00;95505.84;4982372;28;20179;-65
2022/12/01 10:35:50;;;;;;;1999.90;999.90;;;;;;;3.83;100.00;95496.41;4981643;28;20202;-66
2022/12/01 10:38:29;;;;;;;1999.90;999.90;;;;;;;3.88;100.00;95490.69;4981212;28;20669;-67
2022/12/01 10:40:58;;;;;;;1999.90;999.90;;;;;;;4.02;100.00;95494.47;4982183;28;20520;-64
2022/12/01 10:43:52;;;;;;;1999.90;999.90;;;;;;;4.08;100.00;95501.09;4981978;28;20175;-71
2022/12/01 10:46:24;;;;;;;1999.90;999.90;;;;;;;4.10;100.00;95498.06;4971490;28;20188;-69
2022/12/01 10:48:58;;;;;;;1999.90;999.90;;;;;;;4.09;100.00;95504.59;4980771;28;20541;-66
2022/12/01 10:51:25;;;;;;;1999.90;999.90;;;;;;;4.16;100.00;95500.13;4981351;28;20199;-68
2022/12/01 10:54:17;;;;;;;1999.90;999.90;;;;;;;4.22;100.00;95500.59;4981334;28;20603;-67
2022/12/01 10:56:46;;;;;;;1999.90;999.90;;;;;;;4.36;100.00;95498.13;4976475;28;20653;-67
2022/12/01 10:59:22;;;;;;;1999.90;999.90;;;;;;;4.07;100.00;95496.09;4981024;28;20231;-63
2022/12/01 11:01:48;;;;;;;1999.90;999.90;;;;;;;3.99;100.00;95505.19;4981869;28;20181;-63
2022/12/01 11:04:44;;;;;;;1999.90;999.90;;;;;;;3.84;100.00;95500.66;4981350;28;20200;-67
2022/12/01 11:07:21;;;;;;;1999.90;999.90;;;;;;;3.90;100.00;95491.13;4980709;28;20180;-67
2022/12/01 11:10:01;;;;;;;1999.90;999.90;;;;;;;4.05;100.00;95479.44;4980778;28;20176;-68